sensor_id;sensor_type;location;lat;lon;timestamp;temperature;humidity
21207;DHT22;10761;48.532;8.026;2022-11-03T00:02:17;10.60;99.90
21207;DHT22;10761;48.532;8.026;2022-11-03T00:04:42;10.70;99.90
21207;DHT22;10761;48.532;8.026;2022-11-03T00:07:08;10.80;99.90
21207;DHT22;10761;48.532;8.026;2022-11-03T00:09:34;10.90;99.90
21207;DHT22;10761;48.532;8.026;2022-11-03T00:12:00;11.00;99.90
21207;DHT22;10761;48.532;8.026;2022-11-03T00:14:26;10.90;99.90
21207;DHT22;10761;48.532;8.026;2022-11-03T00:16:52;10.80;99.90
21207;DHT22;10761;48.532;8.026;2022-11-03T00:19:18;10.70;99.90
21207;DHT22;10761;48.532;8.026;2022-11-03T00:21:44;10.70;99.90
21207;DHT22;10761;48.532;8.026;2022-11-03T00:24:10;10.60;99.90
21207;DHT22;10761;48.532;8.026;2022-11-03T00:26:36;10.50;99.90
21207;DHT22;10761;48.532;8.026;2022-11-03T00:29:08;10.30;99.90
21207;DHT22;10761;48.532;8.026;2022-11-03T00:31:35;10.20;99.90
21207;DHT22;10761;48.532;8.026;2022-11-03T00:34:02;10.00;99.90
21207;DHT22;10761;48.532;8.026;2022-11-03T00:36:42;10.00;99.90
21207;DHT22;10761;48.532;8.026;2022-11-03T00:39:09;10.00;99.90
21207;DHT22;10761;48.532;8.026;2022-11-03T00:41:36;9.90;99.90
21207;DHT22;10761;48.532;8.026;2022-11-03T00:44:02;10.00;99.90
21207;DHT22;10761;48.532;8.026;2022-11-03T00:46:27;10.00;99.90
21207;DHT22;10761;48.532;8.026;2022-11-03T00:48:54;10.00;99.90
21207;DHT22;10761;48.532;8.026;2022-11-03T00:51:25;9.90;99.90
21207;DHT22;10761;48.532;8.026;2022-11-03T00:53:57;9.90;99.90
21207;DHT22;10761;48.532;8.026;2022-11-03T00:56:32;9.80;99.90
21207;DHT22;10761;48.532;8.026;2022-11-03T00:58:59;9.60;99.90
21207;DHT22;10761;48.532;8.026;2022-11-03T01:01:31;9.50;99.90
21207;DHT22;10761;48.532;8.026;2022-11-03T01:03:57;9.30;99.90
21207;DHT22;10761;48.532;8.026;2022-11-03T01:06:44;9.30;99.90
21207;DHT22;10761;48.532;8.026;2022-11-03T01:09:35;9.20;99.90
21207;DHT22;10761;48.532;8.026;2022-11-03T01:14:33;9.00;99.90
21207;DHT22;10761;48.532;8.026;2022-11-03T01:17:00;8.90;99.90
21207;DHT22;10761;48.532;8.026;2022-11-03T01:19:25;8.90;99.90
21207;DHT22;10761;48.532;8.026;2022-11-03T01:21:52;8.80;99.90
21207;DHT22;10761;48.532;8.026;2022-11-03T01:24:18;8.70;99.90
21207;DHT22;10761;48.532;8.026;2022-11-03T01:26:44;8.70;99.90
21207;DHT22;10761;48.532;8.026;2022-11-03T01:29:09;8.60;99.90
21207;DHT22;10761;48.532;8.026;2022-11-03T01:31:35;8.60;99.90
21207;DHT22;10761;48.532;8.026;2022-11-03T01:34:01;8.50;99.90
21207;DHT22;10761;48.532;8.026;2022-11-03T01:36:26;8.40;99.90
21207;DHT22;10761;48.532;8.026;2022-11-03T01:38:54;8.40;99.90
21207;DHT22;10761;48.532;8.026;2022-11-03T01:41:23;8.40;99.90
21207;DHT22;10761;48.532;8.026;2022-11-03T01:51:53;8.30;99.90
21207;DHT22;10761;48.532;8.026;2022-11-03T01:54:21;8.20;99.90
21207;DHT22;10761;48.532;8.026;2022-11-03T01:56:49;8.20;99.90
21207;DHT22;10761;48.532;8.026;2022-11-03T01:59:17;8.10;99.90
21207;DHT22;10761;48.532;8.026;2022-11-03T02:01:44;8.10;99.90
21207;DHT22;10761;48.532;8.026;2022-11-03T02:04:30;8.00;99.90
21207;DHT22;10761;48.532;8.026;2022-11-03T02:09:59;8.00;99.90
21207;DHT22;10761;48.532;8.026;2022-11-03T02:12:25;8.00;99.90
21207;DHT22;10761;48.532;8.026;2022-11-03T02:14:59;7.90;99.90
21207;DHT22;10761;48.532;8.026;2022-11-03T02:17:28;7.80;99.90
21207;DHT22;10761;48.532;8.026;2022-11-03T02:23:42;7.60;99.90
21207;DHT22;10761;48.532;8.026;2022-11-03T02:26:14;7.60;99.90
21207;DHT22;10761;48.532;8.026;2022-11-03T02:28:41;7.60;99.90
21207;DHT22;10761;48.532;8.026;2022-11-03T02:33:58;7.40;99.90
21207;DHT22;10761;48.532;8.026;2022-11-03T02:39:02;7.40;99.90
21207;DHT22;10761;48.532;8.026;2022-11-03T02:41:28;7.40;99.90
21207;DHT22;10761;48.532;8.026;2022-11-03T02:43:55;7.30;99.90
21207;DHT22;10761;48.532;8.026;2022-11-03T02:46:23;7.30;99.90
21207;DHT22;10761;48.532;8.026;2022-11-03T02:48:50;7.30;99.90
21207;DHT22;10761;48.532;8.026;2022-11-03T02:51:16;7.40;99.90
21207;DHT22;10761;48.532;8.026;2022-11-03T02:53:58;7.40;99.90
21207;DHT22;10761;48.532;8.026;2022-11-03T02:56:26;7.40;99.90
21207;DHT22;10761;48.532;8.026;2022-11-03T02:59:01;7.50;99.90
21207;DHT22;10761;48.532;8.026;2022-11-03T03:01:36;7.40;99.90
21207;DHT22;10761;48.532;8.026;2022-11-03T03:04:13;7.40;99.90
21207;DHT22;10761;48.532;8.026;2022-11-03T03:06:48;7.40;99.90
21207;DHT22;10761;48.532;8.026;2022-11-03T03:09:23;7.40;99.90
21207;DHT22;10761;48.532;8.026;2022-11-03T03:15:23;7.50;99.90
21207;DHT22;10761;48.532;8.026;2022-11-03T03:17:53;7.50;99.90
21207;DHT22;10761;48.532;8.026;2022-11-03T03:23:30;7.50;99.90
21207;DHT22;10761;48.532;8.026;2022-11-03T03:26:08;7.50;99.90
21207;DHT22;10761;48.532;8.026;2022-11-03T03:28:47;7.50;99.90
21207;DHT22;10761;48.532;8.026;2022-11-03T03:31:17;7.50;99.90
21207;DHT22;10761;48.532;8.026;2022-11-03T03:33:44;7.50;99.90
21207;DHT22;10761;48.532;8.026;2022-11-03T03:36:15;7.40;99.90
21207;DHT22;10761;48.532;8.026;2022-11-03T03:38:55;7.40;99.90
21207;DHT22;10761;48.532;8.026;2022-11-03T03:41:24;7.50;99.90
21207;DHT22;10761;48.532;8.026;2022-11-03T03:43:53;7.50;99.90
21207;DHT22;10761;48.532;8.026;2022-11-03T03:46:21;7.50;99.90
21207;DHT22;10761;48.532;8.026;2022-11-03T03:48:48;7.50;99.90
21207;DHT22;10761;48.532;8.026;2022-11-03T03:51:15;7.60;99.90
21207;DHT22;10761;48.532;8.026;2022-11-03T03:53:41;7.60;99.90
21207;DHT22;10761;48.532;8.026;2022-11-03T03:56:07;7.60;99.90
21207;DHT22;10761;48.532;8.026;2022-11-03T03:58:32;7.70;99.90
21207;DHT22;10761;48.532;8.026;2022-11-03T04:00:58;7.70;99.90
21207;DHT22;10761;48.532;8.026;2022-11-03T04:03:25;7.60;99.90
21207;DHT22;10761;48.532;8.026;2022-11-03T04:05:52;7.60;99.90
21207;DHT22;10761;48.532;8.026;2022-11-03T04:08:19;7.60;99.90
21207;DHT22;10761;48.532;8.026;2022-11-03T04:10:45;7.60;99.90
21207;DHT22;10761;48.532;8.026;2022-11-03T04:13:32;7.60;99.90
21207;DHT22;10761;48.532;8.026;2022-11-03T04:16:16;7.60;99.90
21207;DHT22;10761;48.532;8.026;2022-11-03T04:19:01;7.60;99.90
21207;DHT22;10761;48.532;8.026;2022-11-03T04:21:45;7.60;99.90
21207;DHT22;10761;48.532;8.026;2022-11-03T04:24:48;7.70;99.90
21207;DHT22;10761;48.532;8.026;2022-11-03T04:27:32;7.60;99.90
21207;DHT22;10761;48.532;8.026;2022-11-03T04:32:34;7.60;99.90
21207;DHT22;10761;48.532;8.026;2022-11-03T04:35:00;7.50;99.90
21207;DHT22;10761;48.532;8.026;2022-11-03T04:37:28;7.50;99.90
21207;DHT22;10761;48.532;8.026;2022-11-03T04:39:58;7.50;99.90
21207;DHT22;10761;48.532;8.026;2022-11-03T04:42:30;7.40;99.90
21207;DHT22;10761;48.532;8.026;2022-11-03T04:44:59;7.40;99.90
21207;DHT22;10761;48.532;8.026;2022-11-03T04:47:26;7.40;99.90
21207;DHT22;10761;48.532;8.026;2022-11-03T04:49:52;7.40;99.90
21207;DHT22;10761;48.532;8.026;2022-11-03T04:52:21;7.40;99.90
21207;DHT22;10761;48.532;8.026;2022-11-03T04:54:49;7.40;99.90
21207;DHT22;10761;48.532;8.026;2022-11-03T04:57:17;7.40;99.90
21207;DHT22;10761;48.532;8.026;2022-11-03T04:59:45;7.30;99.90
21207;DHT22;10761;48.532;8.026;2022-11-03T05:02:20;7.30;99.90
21207;DHT22;10761;48.532;8.026;2022-11-03T05:04:46;7.20;99.90
21207;DHT22;10761;48.532;8.026;2022-11-03T05:07:22;7.20;99.90
21207;DHT22;10761;48.532;8.026;2022-11-03T05:09:49;7.20;99.90
21207;DHT22;10761;48.532;8.026;2022-11-03T05:12:16;7.20;99.90
21207;DHT22;10761;48.532;8.026;2022-11-03T05:14:42;7.20;99.90
21207;DHT22;10761;48.532;8.026;2022-11-03T05:17:22;7.10;99.90
21207;DHT22;10761;48.532;8.026;2022-11-03T05:19:50;7.10;99.90
21207;DHT22;10761;48.532;8.026;2022-11-03T05:22:21;7.10;99.90
21207;DHT22;10761;48.532;8.026;2022-11-03T05:24:49;7.10;99.90
21207;DHT22;10761;48.532;8.026;2022-11-03T05:27:20;7.10;99.90
21207;DHT22;10761;48.532;8.026;2022-11-03T05:29:47;7.10;99.90
21207;DHT22;10761;48.532;8.026;2022-11-03T05:32:23;7.10;99.90
21207;DHT22;10761;48.532;8.026;2022-11-03T05:34:51;7.10;99.90
21207;DHT22;10761;48.532;8.026;2022-11-03T05:37:34;7.00;99.90
21207;DHT22;10761;48.532;8.026;2022-11-03T05:40:05;7.00;99.90
21207;DHT22;10761;48.532;8.026;2022-11-03T05:42:40;7.00;99.90
21207;DHT22;10761;48.532;8.026;2022-11-03T05:45:22;7.10;99.90
21207;DHT22;10761;48.532;8.026;2022-11-03T05:47:49;7.10;99.90
21207;DHT22;10761;48.532;8.026;2022-11-03T05:50:23;7.10;99.90
21207;DHT22;10761;48.532;8.026;2022-11-03T05:52:52;7.00;99.90
21207;DHT22;10761;48.532;8.026;2022-11-03T05:55:38;7.00;99.90
21207;DHT22;10761;48.532;8.026;2022-11-03T05:58:18;7.00;99.90
21207;DHT22;10761;48.532;8.026;2022-11-03T06:00:46;7.00;99.90
21207;DHT22;10761;48.532;8.026;2022-11-03T06:03:33;7.00;99.90
21207;DHT22;10761;48.532;8.026;2022-11-03T06:06:01;7.00;99.90
21207;DHT22;10761;48.532;8.026;2022-11-03T06:08:33;7.00;99.90
21207;DHT22;10761;48.532;8.026;2022-11-03T06:11:00;7.00;99.90
21207;DHT22;10761;48.532;8.026;2022-11-03T06:13:33;7.10;99.90
21207;DHT22;10761;48.532;8.026;2022-11-03T06:16:03;7.20;99.90
21207;DHT22;10761;48.532;8.026;2022-11-03T06:18:33;7.20;99.90
21207;DHT22;10761;48.532;8.026;2022-11-03T06:21:13;7.20;99.90
21207;DHT22;10761;48.532;8.026;2022-11-03T06:23:41;7.20;99.90
21207;DHT22;10761;48.532;8.026;2022-11-03T06:26:26;7.10;99.90
21207;DHT22;10761;48.532;8.026;2022-11-03T06:28:53;7.00;99.90
21207;DHT22;10761;48.532;8.026;2022-11-03T06:31:25;7.00;99.90
21207;DHT22;10761;48.532;8.026;2022-11-03T06:33:56;7.00;99.90
21207;DHT22;10761;48.532;8.026;2022-11-03T06:36:25;7.00;99.90
21207;DHT22;10761;48.532;8.026;2022-11-03T06:38:55;7.10;99.90
21207;DHT22;10761;48.532;8.026;2022-11-03T06:41:26;7.10;99.90
21207;DHT22;10761;48.532;8.026;2022-11-03T06:43:52;7.10;99.90
21207;DHT22;10761;48.532;8.026;2022-11-03T06:46:23;7.20;99.90
21207;DHT22;10761;48.532;8.026;2022-11-03T06:48:50;7.20;99.90
21207;DHT22;10761;48.532;8.026;2022-11-03T06:51:26;7.30;99.90
21207;DHT22;10761;48.532;8.026;2022-11-03T06:53:53;7.30;99.90
21207;DHT22;10761;48.532;8.026;2022-11-03T06:56:21;7.30;99.90
21207;DHT22;10761;48.532;8.026;2022-11-03T06:58:49;7.30;99.90
21207;DHT22;10761;48.532;8.026;2022-11-03T07:01:30;7.40;99.90
21207;DHT22;10761;48.532;8.026;2022-11-03T07:04:12;7.40;99.90
21207;DHT22;10761;48.532;8.026;2022-11-03T07:06:38;7.50;99.90
21207;DHT22;10761;48.532;8.026;2022-11-03T07:09:06;7.50;99.90
21207;DHT22;10761;48.532;8.026;2022-11-03T07:11:44;7.60;99.90
21207;DHT22;10761;48.532;8.026;2022-11-03T07:14:14;7.70;99.90
21207;DHT22;10761;48.532;8.026;2022-11-03T07:16:43;7.70;99.90
21207;DHT22;10761;48.532;8.026;2022-11-03T07:19:17;7.90;99.90
21207;DHT22;10761;48.532;8.026;2022-11-03T07:24:32;8.10;99.90
21207;DHT22;10761;48.532;8.026;2022-11-03T07:27:06;8.20;99.90
21207;DHT22;10761;48.532;8.026;2022-11-03T07:29:38;8.20;99.90
21207;DHT22;10761;48.532;8.026;2022-11-03T07:32:14;8.30;99.90
21207;DHT22;10761;48.532;8.026;2022-11-03T07:34:41;8.30;99.90
21207;DHT22;10761;48.532;8.026;2022-11-03T07:37:14;8.40;99.90
21207;DHT22;10761;48.532;8.026;2022-11-03T07:39:41;8.50;99.90
21207;DHT22;10761;48.532;8.026;2022-11-03T07:42:21;8.70;99.90
21207;DHT22;10761;48.532;8.026;2022-11-03T07:44:49;8.90;99.90
21207;DHT22;10761;48.532;8.026;2022-11-03T07:47:24;9.00;99.90
21207;DHT22;10761;48.532;8.026;2022-11-03T07:49:54;9.10;99.90
21207;DHT22;10761;48.532;8.026;2022-11-03T07:52:23;9.10;99.90
21207;DHT22;10761;48.532;8.026;2022-11-03T07:54:54;9.20;99.90
21207;DHT22;10761;48.532;8.026;2022-11-03T07:59:51;9.60;99.90
21207;DHT22;10761;48.532;8.026;2022-11-03T08:02:32;9.80;99.90
21207;DHT22;10761;48.532;8.026;2022-11-03T08:04:59;10.10;99.90
21207;DHT22;10761;48.532;8.026;2022-11-03T08:07:25;10.60;99.90
21207;DHT22;10761;48.532;8.026;2022-11-03T08:09:52;10.80;99.90
21207;DHT22;10761;48.532;8.026;2022-11-03T08:12:18;11.00;99.90
21207;DHT22;10761;48.532;8.026;2022-11-03T08:14:44;11.10;99.90
21207;DHT22;10761;48.532;8.026;2022-11-03T08:17:09;11.20;99.90
21207;DHT22;10761;48.532;8.026;2022-11-03T08:19:35;11.30;99.90
21207;DHT22;10761;48.532;8.026;2022-11-03T08:22:00;11.40;99.90
21207;DHT22;10761;48.532;8.026;2022-11-03T08:24:26;11.60;99.90
21207;DHT22;10761;48.532;8.026;2022-11-03T08:26:52;11.70;99.90
21207;DHT22;10761;48.532;8.026;2022-11-03T08:29:17;11.90;99.90
21207;DHT22;10761;48.532;8.026;2022-11-03T08:31:43;11.80;99.90
21207;DHT22;10761;48.532;8.026;2022-11-03T08:34:09;11.80;99.90
21207;DHT22;10761;48.532;8.026;2022-11-03T08:36:36;11.70;99.90
21207;DHT22;10761;48.532;8.026;2022-11-03T08:39:02;11.80;99.90
21207;DHT22;10761;48.532;8.026;2022-11-03T08:41:28;11.90;99.90
21207;DHT22;10761;48.532;8.026;2022-11-03T08:43:54;12.00;99.90
21207;DHT22;10761;48.532;8.026;2022-11-03T08:46:19;12.00;99.90
21207;DHT22;10761;48.532;8.026;2022-11-03T08:48:45;11.80;99.90
21207;DHT22;10761;48.532;8.026;2022-11-03T08:51:12;11.70;99.90
21207;DHT22;10761;48.532;8.026;2022-11-03T08:53:38;11.60;99.90
21207;DHT22;10761;48.532;8.026;2022-11-03T08:56:05;11.80;99.90
21207;DHT22;10761;48.532;8.026;2022-11-03T08:58:31;11.90;99.90
21207;DHT22;10761;48.532;8.026;2022-11-03T09:00:57;12.00;99.90
21207;DHT22;10761;48.532;8.026;2022-11-03T09:03:23;11.80;99.90
21207;DHT22;10761;48.532;8.026;2022-11-03T09:05:48;11.80;99.90
21207;DHT22;10761;48.532;8.026;2022-11-03T09:08:14;11.70;99.90
21207;DHT22;10761;48.532;8.026;2022-11-03T09:10:40;11.70;99.90
21207;DHT22;10761;48.532;8.026;2022-11-03T09:13:06;11.60;99.90
21207;DHT22;10761;48.532;8.026;2022-11-03T09:15:31;11.70;99.90
21207;DHT22;10761;48.532;8.026;2022-11-03T09:17:57;11.80;99.90
21207;DHT22;10761;48.532;8.026;2022-11-03T09:20:23;12.00;99.90
21207;DHT22;10761;48.532;8.026;2022-11-03T09:22:49;12.20;99.90
21207;DHT22;10761;48.532;8.026;2022-11-03T09:25:15;12.20;99.90
21207;DHT22;10761;48.532;8.026;2022-11-03T09:27:40;12.30;99.90
21207;DHT22;10761;48.532;8.026;2022-11-03T09:30:06;12.30;99.90
21207;DHT22;10761;48.532;8.026;2022-11-03T09:32:32;12.30;99.90
21207;DHT22;10761;48.532;8.026;2022-11-03T09:34:58;12.20;99.90
21207;DHT22;10761;48.532;8.026;2022-11-03T09:37:24;12.30;99.90
21207;DHT22;10761;48.532;8.026;2022-11-03T09:39:49;12.40;99.90
21207;DHT22;10761;48.532;8.026;2022-11-03T09:42:16;13.00;99.90
21207;DHT22;10761;48.532;8.026;2022-11-03T09:44:44;13.60;99.90
21207;DHT22;10761;48.532;8.026;2022-11-03T09:47:49;14.10;99.90
21207;DHT22;10761;48.532;8.026;2022-11-03T09:50:16;14.20;99.90
21207;DHT22;10761;48.532;8.026;2022-11-03T09:52:43;14.20;99.90
21207;DHT22;10761;48.532;8.026;2022-11-03T09:55:21;14.00;99.90
21207;DHT22;10761;48.532;8.026;2022-11-03T09:57:48;13.90;99.90
21207;DHT22;10761;48.532;8.026;2022-11-03T10:00:17;13.90;99.90
21207;DHT22;10761;48.532;8.026;2022-11-03T10:02:43;13.70;99.90
21207;DHT22;10761;48.532;8.026;2022-11-03T10:05:12;13.40;99.90
21207;DHT22;10761;48.532;8.026;2022-11-03T10:07:39;13.20;99.90
21207;DHT22;10761;48.532;8.026;2022-11-03T10:10:15;13.20;99.90
21207;DHT22;10761;48.532;8.026;2022-11-03T10:12:41;13.40;99.90
21207;DHT22;10761;48.532;8.026;2022-11-03T10:15:15;13.60;99.90
21207;DHT22;10761;48.532;8.026;2022-11-03T10:17:43;13.70;99.90
21207;DHT22;10761;48.532;8.026;2022-11-03T10:20:14;13.50;99.90
21207;DHT22;10761;48.532;8.026;2022-11-03T10:22:41;13.30;99.90
21207;DHT22;10761;48.532;8.026;2022-11-03T10:25:32;13.30;99.90
21207;DHT22;10761;48.532;8.026;2022-11-03T10:28:23;13.20;99.90
21207;DHT22;10761;48.532;8.026;2022-11-03T10:30:56;13.20;99.90
21207;DHT22;10761;48.532;8.026;2022-11-03T10:33:30;13.30;99.90
21207;DHT22;10761;48.532;8.026;2022-11-03T10:36:04;13.40;99.90
21207;DHT22;10761;48.532;8.026;2022-11-03T10:38:37;13.60;99.90
21207;DHT22;10761;48.532;8.026;2022-11-03T10:41:10;13.90;99.90
21207;DHT22;10761;48.532;8.026;2022-11-03T10:43:38;14.10;99.90
21207;DHT22;10761;48.532;8.026;2022-11-03T10:46:21;14.30;99.90
21207;DHT22;10761;48.532;8.026;2022-11-03T10:51:38;14.50;99.90
21207;DHT22;10761;48.532;8.026;2022-11-03T10:54:10;14.50;99.90
21207;DHT22;10761;48.532;8.026;2022-11-03T10:56:37;14.50;99.90
21207;DHT22;10761;48.532;8.026;2022-11-03T10:59:03;14.50;99.90
21207;DHT22;10761;48.532;8.026;2022-11-03T11:01:29;14.50;99.90
21207;DHT22;10761;48.532;8.026;2022-11-03T11:03:55;14.20;99.90
21207;DHT22;10761;48.532;8.026;2022-11-03T11:06:27;14.30;99.90
21207;DHT22;10761;48.532;8.026;2022-11-03T11:08:57;14.20;99.90
21207;DHT22;10761;48.532;8.026;2022-11-03T11:11:24;14.20;99.90
21207;DHT22;10761;48.532;8.026;2022-11-03T11:14:22;14.20;99.90
21207;DHT22;10761;48.532;8.026;2022-11-03T11:16:51;14.30;99.90
21207;DHT22;10761;48.532;8.026;2022-11-03T11:19:17;14.30;99.90
21207;DHT22;10761;48.532;8.026;2022-11-03T11:24:10;14.20;99.90
21207;DHT22;10761;48.532;8.026;2022-11-03T11:26:36;14.20;99.90
21207;DHT22;10761;48.532;8.026;2022-11-03T11:31:35;14.30;99.90
21207;DHT22;10761;48.532;8.026;2022-11-03T11:36:34;14.30;99.90
21207;DHT22;10761;48.532;8.026;2022-11-03T11:39:00;14.30;99.90
21207;DHT22;10761;48.532;8.026;2022-11-03T11:49:59;14.20;99.90
21207;DHT22;10761;48.532;8.026;2022-11-03T11:52:25;14.30;99.90
21207;DHT22;10761;48.532;8.026;2022-11-03T11:54:51;14.30;99.90
21207;DHT22;10761;48.532;8.026;2022-11-03T11:57:19;14.30;99.90
21207;DHT22;10761;48.532;8.026;2022-11-03T11:59:46;14.40;99.90
21207;DHT22;10761;48.532;8.026;2022-11-03T12:02:22;14.40;99.90
21207;DHT22;10761;48.532;8.026;2022-11-03T12:04:53;14.60;99.90
21207;DHT22;10761;48.532;8.026;2022-11-03T12:07:34;14.70;99.90
21207;DHT22;10761;48.532;8.026;2022-11-03T12:12:39;14.80;99.90
21207;DHT22;10761;48.532;8.026;2022-11-03T12:15:05;14.80;99.90
21207;DHT22;10761;48.532;8.026;2022-11-03T12:17:31;14.80;99.90
21207;DHT22;10761;48.532;8.026;2022-11-03T12:19:57;14.90;99.90
21207;DHT22;10761;48.532;8.026;2022-11-03T12:29:56;15.00;99.90
21207;DHT22;10761;48.532;8.026;2022-11-03T12:32:22;15.00;99.90
21207;DHT22;10761;48.532;8.026;2022-11-03T12:34:48;15.00;99.90
21207;DHT22;10761;48.532;8.026;2022-11-03T12:37:14;14.90;99.90
21207;DHT22;10761;48.532;8.026;2022-11-03T12:39:39;14.90;99.90
21207;DHT22;10761;48.532;8.026;2022-11-03T12:42:05;14.80;99.90
21207;DHT22;10761;48.532;8.026;2022-11-03T12:44:31;14.70;99.90
21207;DHT22;10761;48.532;8.026;2022-11-03T12:46:57;14.70;99.90
21207;DHT22;10761;48.532;8.026;2022-11-03T12:49:24;14.70;99.90
21207;DHT22;10761;48.532;8.026;2022-11-03T12:51:50;14.70;99.90
21207;DHT22;10761;48.532;8.026;2022-11-03T12:54:15;14.70;99.90
21207;DHT22;10761;48.532;8.026;2022-11-03T12:56:41;14.60;99.90
21207;DHT22;10761;48.532;8.026;2022-11-03T12:59:06;14.60;99.90
21207;DHT22;10761;48.532;8.026;2022-11-03T13:01:32;14.70;99.90
21207;DHT22;10761;48.532;8.026;2022-11-03T13:03:58;14.70;99.90
21207;DHT22;10761;48.532;8.026;2022-11-03T13:06:24;14.60;99.90
21207;DHT22;10761;48.532;8.026;2022-11-03T13:08:50;14.60;99.90
21207;DHT22;10761;48.532;8.026;2022-11-03T13:11:16;14.60;99.90
21207;DHT22;10761;48.532;8.026;2022-11-03T13:14:00;14.70;99.90
21207;DHT22;10761;48.532;8.026;2022-11-03T13:16:26;14.70;99.90
21207;DHT22;10761;48.532;8.026;2022-11-03T13:18:51;14.70;99.90
21207;DHT22;10761;48.532;8.026;2022-11-03T13:21:17;14.70;99.90
21207;DHT22;10761;48.532;8.026;2022-11-03T13:23:43;14.80;99.90
21207;DHT22;10761;48.532;8.026;2022-11-03T13:26:08;14.90;99.90
21207;DHT22;10761;48.532;8.026;2022-11-03T13:28:34;15.00;99.90
21207;DHT22;10761;48.532;8.026;2022-11-03T13:31:01;14.80;99.90
21207;DHT22;10761;48.532;8.026;2022-11-03T13:33:26;14.60;99.90
21207;DHT22;10761;48.532;8.026;2022-11-03T13:35:52;14.30;99.90
21207;DHT22;10761;48.532;8.026;2022-11-03T13:38:18;14.10;99.90
21207;DHT22;10761;48.532;8.026;2022-11-03T13:40:43;13.90;99.90
21207;DHT22;10761;48.532;8.026;2022-11-03T13:43:09;13.70;99.90
21207;DHT22;10761;48.532;8.026;2022-11-03T13:45:35;13.60;99.90
21207;DHT22;10761;48.532;8.026;2022-11-03T13:48:01;13.60;99.90
21207;DHT22;10761;48.532;8.026;2022-11-03T13:50:27;13.60;99.90
21207;DHT22;10761;48.532;8.026;2022-11-03T13:52:52;13.70;99.90
21207;DHT22;10761;48.532;8.026;2022-11-03T13:55:18;13.80;99.90
21207;DHT22;10761;48.532;8.026;2022-11-03T13:57:44;13.80;99.90
21207;DHT22;10761;48.532;8.026;2022-11-03T14:00:11;13.80;99.90
21207;DHT22;10761;48.532;8.026;2022-11-03T14:02:41;13.80;99.90
21207;DHT22;10761;48.532;8.026;2022-11-03T14:05:08;13.70;99.90
21207;DHT22;10761;48.532;8.026;2022-11-03T14:07:34;13.60;99.90
21207;DHT22;10761;48.532;8.026;2022-11-03T14:10:00;13.60;99.90
21207;DHT22;10761;48.532;8.026;2022-11-03T14:12:25;13.60;99.90
21207;DHT22;10761;48.532;8.026;2022-11-03T14:14:58;13.60;99.90
21207;DHT22;10761;48.532;8.026;2022-11-03T14:17:24;13.60;99.90
21207;DHT22;10761;48.532;8.026;2022-11-03T14:19:50;13.60;99.90
21207;DHT22;10761;48.532;8.026;2022-11-03T14:22:16;13.60;99.90
21207;DHT22;10761;48.532;8.026;2022-11-03T14:24:42;13.70;99.90
21207;DHT22;10761;48.532;8.026;2022-11-03T14:27:08;13.80;99.90
21207;DHT22;10761;48.532;8.026;2022-11-03T14:29:33;13.70;99.90
21207;DHT22;10761;48.532;8.026;2022-11-03T14:31:59;13.70;99.90
21207;DHT22;10761;48.532;8.026;2022-11-03T14:34:25;13.60;99.90
21207;DHT22;10761;48.532;8.026;2022-11-03T14:36:51;13.50;99.90
21207;DHT22;10761;48.532;8.026;2022-11-03T14:39:17;13.40;99.90
21207;DHT22;10761;48.532;8.026;2022-11-03T14:41:42;13.30;99.90
21207;DHT22;10761;48.532;8.026;2022-11-03T14:44:44;13.20;99.90
21207;DHT22;10761;48.532;8.026;2022-11-03T14:47:17;13.10;99.90
21207;DHT22;10761;48.532;8.026;2022-11-03T14:49:44;13.00;99.90
21207;DHT22;10761;48.532;8.026;2022-11-03T14:52:11;13.00;99.90
21207;DHT22;10761;48.532;8.026;2022-11-03T14:54:37;13.00;99.90
21207;DHT22;10761;48.532;8.026;2022-11-03T14:57:03;12.80;99.90
21207;DHT22;10761;48.532;8.026;2022-11-03T14:59:29;12.80;99.90
21207;DHT22;10761;48.532;8.026;2022-11-03T15:01:55;12.70;99.90
21207;DHT22;10761;48.532;8.026;2022-11-03T15:04:21;12.70;99.90
21207;DHT22;10761;48.532;8.026;2022-11-03T15:06:47;12.70;99.90
21207;DHT22;10761;48.532;8.026;2022-11-03T15:09:14;12.70;99.90
21207;DHT22;10761;48.532;8.026;2022-11-03T15:11:43;12.70;99.90
21207;DHT22;10761;48.532;8.026;2022-11-03T15:14:10;12.60;99.90
21207;DHT22;10761;48.532;8.026;2022-11-03T15:16:36;12.60;99.90
21207;DHT22;10761;48.532;8.026;2022-11-03T15:19:03;12.60;99.90
21207;DHT22;10761;48.532;8.026;2022-11-03T15:21:29;12.60;99.90
21207;DHT22;10761;48.532;8.026;2022-11-03T15:23:55;12.50;99.90
21207;DHT22;10761;48.532;8.026;2022-11-03T15:26:21;12.40;99.90
21207;DHT22;10761;48.532;8.026;2022-11-03T15:28:46;12.40;99.90
21207;DHT22;10761;48.532;8.026;2022-11-03T15:31:12;12.40;99.90
21207;DHT22;10761;48.532;8.026;2022-11-03T15:33:38;12.50;99.90
21207;DHT22;10761;48.532;8.026;2022-11-03T15:36:04;12.50;99.90
21207;DHT22;10761;48.532;8.026;2022-11-03T15:38:31;12.50;99.90
21207;DHT22;10761;48.532;8.026;2022-11-03T15:40:57;12.60;99.90
21207;DHT22;10761;48.532;8.026;2022-11-03T15:43:43;12.50;99.90
21207;DHT22;10761;48.532;8.026;2022-11-03T15:46:09;12.50;99.90
21207;DHT22;10761;48.532;8.026;2022-11-03T15:48:36;12.40;99.90
21207;DHT22;10761;48.532;8.026;2022-11-03T15:51:01;12.40;99.90
21207;DHT22;10761;48.532;8.026;2022-11-03T15:53:27;12.30;99.90
21207;DHT22;10761;48.532;8.026;2022-11-03T15:55:52;12.30;99.90
21207;DHT22;10761;48.532;8.026;2022-11-03T15:58:18;12.30;99.90
21207;DHT22;10761;48.532;8.026;2022-11-03T16:00:44;12.30;99.90
21207;DHT22;10761;48.532;8.026;2022-11-03T16:03:09;12.30;99.90
21207;DHT22;10761;48.532;8.026;2022-11-03T16:05:35;12.30;99.90
21207;DHT22;10761;48.532;8.026;2022-11-03T16:08:00;12.20;99.90
21207;DHT22;10761;48.532;8.026;2022-11-03T16:10:26;12.20;99.90
21207;DHT22;10761;48.532;8.026;2022-11-03T16:12:52;12.00;99.90
21207;DHT22;10761;48.532;8.026;2022-11-03T16:15:17;11.90;99.90
21207;DHT22;10761;48.532;8.026;2022-11-03T16:17:43;11.70;99.90
21207;DHT22;10761;48.532;8.026;2022-11-03T16:20:09;11.60;99.90
21207;DHT22;10761;48.532;8.026;2022-11-03T16:22:35;11.60;99.90
21207;DHT22;10761;48.532;8.026;2022-11-03T16:25:01;11.50;99.90
21207;DHT22;10761;48.532;8.026;2022-11-03T16:27:27;11.50;99.90
21207;DHT22;10761;48.532;8.026;2022-11-03T16:29:52;11.50;99.90
21207;DHT22;10761;48.532;8.026;2022-11-03T16:32:20;11.50;99.90
21207;DHT22;10761;48.532;8.026;2022-11-03T16:34:46;11.50;99.90
21207;DHT22;10761;48.532;8.026;2022-11-03T16:37:13;11.50;99.90
21207;DHT22;10761;48.532;8.026;2022-11-03T16:39:40;11.60;99.90
21207;DHT22;10761;48.532;8.026;2022-11-03T16:42:06;11.60;99.90
21207;DHT22;10761;48.532;8.026;2022-11-03T16:44:31;11.60;99.90
21207;DHT22;10761;48.532;8.026;2022-11-03T16:46:59;11.60;99.90
21207;DHT22;10761;48.532;8.026;2022-11-03T16:49:24;11.50;99.90
21207;DHT22;10761;48.532;8.026;2022-11-03T16:51:50;11.50;99.90
21207;DHT22;10761;48.532;8.026;2022-11-03T16:54:17;11.40;99.90
21207;DHT22;10761;48.532;8.026;2022-11-03T16:56:43;11.40;99.90